createdAt,value
2022-12-14T00:01:49.595Z,-7.87
2022-12-14T00:04:17.805Z,-7.84
2022-12-14T00:06:45.893Z,-7.89
2022-12-14T00:09:14.026Z,-8.04
2022-12-14T00:11:42.265Z,-8.15
2022-12-14T00:14:10.284Z,-8.17
2022-12-14T00:16:38.204Z,-8.14
2022-12-14T00:19:06.181Z,-8.13
2022-12-14T00:21:34.322Z,-8.19
2022-12-14T00:24:02.378Z,-8.23
2022-12-14T00:26:31.542Z,-8.36
2022-12-14T00:29:00.746Z,-8.40
2022-12-14T00:31:29.967Z,-8.32
2022-12-14T00:33:58.326Z,-8.20
2022-12-14T00:36:26.359Z,-8.26
2022-12-14T00:38:54.392Z,-8.35
2022-12-14T00:41:22.403Z,-8.39
2022-12-14T00:43:50.329Z,-8.46
2022-12-14T00:46:18.886Z,-8.51
2022-12-14T00:48:46.862Z,-8.56
2022-12-14T00:51:15.244Z,-8.68
2022-12-14T00:53:46.619Z,-8.77
2022-12-14T00:56:14.598Z,-8.80
2022-12-14T00:58:42.577Z,-8.79
2022-12-14T01:01:15.125Z,-8.76
2022-12-14T01:03:43.242Z,-8.73
2022-12-14T01:06:15.698Z,-8.81
2022-12-14T01:08:43.701Z,-8.77
2022-12-14T01:11:12.408Z,-8.71
2022-12-14T01:13:40.741Z,-8.70
2022-12-14T01:16:10.472Z,-8.67
2022-12-14T01:18:39.423Z,-8.61
2022-12-14T01:21:15.126Z,-8.61
2022-12-14T01:23:44.152Z,-8.65
2022-12-14T01:26:13.002Z,-8.64
2022-12-14T01:28:41.212Z,-8.62
2022-12-14T01:31:11.434Z,-8.57
2022-12-14T01:33:39.480Z,-8.49
2022-12-14T01:36:08.530Z,-8.46
2022-12-14T01:38:36.824Z,-8.36
2022-12-14T01:41:05.863Z,-8.23
2022-12-14T01:43:52.374Z,-8.17
2022-12-14T01:46:40.616Z,-8.26
2022-12-14T01:49:14.106Z,-8.33
2022-12-14T01:51:45.661Z,-8.39
2022-12-14T01:54:15.032Z,-8.44
2022-12-14T01:56:45.053Z,-8.48
2022-12-14T01:59:17.671Z,-8.48
2022-12-14T02:01:46.344Z,-8.49
2022-12-14T02:04:17.411Z,-8.49
2022-12-14T02:06:46.333Z,-8.51
2022-12-14T02:09:16.687Z,-8.52
2022-12-14T02:12:04.741Z,-8.50
2022-12-14T02:14:35.996Z,-8.56
2022-12-14T02:17:07.422Z,-8.58
2022-12-14T02:19:36.836Z,-8.57
2022-12-14T02:22:23.906Z,-8.59
2022-12-14T02:24:58.172Z,-8.59
2022-12-14T02:27:35.438Z,-8.63
2022-12-14T02:30:03.882Z,-8.75
2022-12-14T02:32:45.799Z,-8.85
2022-12-14T02:35:37.069Z,-8.91
2022-12-14T02:38:07.888Z,-8.93
2022-12-14T02:40:35.844Z,-8.88
2022-12-14T02:43:16.491Z,-8.87
2022-12-14T02:45:59.760Z,-8.93
2022-12-14T02:48:33.181Z,-9.04
2022-12-14T02:51:10.312Z,-9.07
2022-12-14T02:53:58.611Z,-9.02
2022-12-14T02:56:31.905Z,-8.92
2022-12-14T02:59:01.187Z,-8.92
2022-12-14T03:01:29.835Z,-8.94
2022-12-14T03:03:57.930Z,-8.93
2022-12-14T03:06:28.713Z,-8.95
2022-12-14T03:08:56.678Z,-8.98
2022-12-14T03:11:28.018Z,-8.96
2022-12-14T03:14:02.543Z,-8.91
2022-12-14T03:16:33.905Z,-8.89
2022-12-14T03:19:22.120Z,-8.83
2022-12-14T03:21:52.105Z,-8.78
2022-12-14T03:24:23.241Z,-8.73
2022-12-14T03:26:56.931Z,-8.73
2022-12-14T03:29:35.489Z,-8.69
2022-12-14T03:32:06.164Z,-8.66
2022-12-14T03:34:36.463Z,-8.63
2022-12-14T03:37:07.057Z,-8.62
2022-12-14T03:39:36.035Z,-8.62
2022-12-14T03:42:06.513Z,-8.63
2022-12-14T03:44:49.544Z,-8.66
2022-12-14T03:47:36.786Z,-8.66
2022-12-14T03:50:09.251Z,-8.70
2022-12-14T03:52:37.268Z,-8.71
2022-12-14T03:55:24.392Z,-8.69
2022-12-14T03:58:11.320Z,-8.69
2022-12-14T04:00:59.509Z,-8.76
2022-12-14T04:03:42.645Z,-8.84
2022-12-14T04:06:20.247Z,-8.88
2022-12-14T04:08:53.403Z,-8.90
2022-12-14T04:11:41.246Z,-8.89
2022-12-14T04:14:40.914Z,-8.87
2022-12-14T04:17:29.587Z,-8.85
2022-12-14T04:20:08.029Z,-8.77
2022-12-14T04:22:42.978Z,-8.72
2022-12-14T04:25:37.334Z,-8.72
2022-12-14T04:28:29.755Z,-8.78
2022-12-14T04:31:01.054Z,-8.82
2022-12-14T04:33:48.052Z,-8.86
2022-12-14T04:36:24.333Z,-8.86
2022-12-14T04:38:55.774Z,-8.81
2022-12-14T04:41:26.951Z,-8.77
2022-12-14T04:43:57.609Z,-8.76
2022-12-14T04:46:27.830Z,-8.73
2022-12-14T04:49:16.036Z,-8.72
2022-12-14T04:51:53.726Z,-8.73
2022-12-14T04:54:29.908Z,-8.74
2022-12-14T04:56:57.910Z,-8.71
2022-12-14T04:59:26.170Z,-8.64
2022-12-14T05:02:11.198Z,-8.54
2022-12-14T05:04:56.325Z,-8.45
2022-12-14T05:07:42.731Z,-8.36
2022-12-14T05:10:13.151Z,-8.29
2022-12-14T05:12:47.019Z,-8.27
2022-12-14T05:15:24.010Z,-8.26
2022-12-14T05:17:52.319Z,-8.22
2022-12-14T05:20:22.227Z,-8.17
2022-12-14T05:22:50.737Z,-8.15
2022-12-14T05:25:18.690Z,-8.14
2022-12-14T05:27:46.751Z,-8.11
2022-12-14T05:30:14.731Z,-8.13
2022-12-14T05:32:42.759Z,-8.15
2022-12-14T05:35:11.869Z,-8.18
2022-12-14T05:37:40.397Z,-8.18
2022-12-14T05:40:09.170Z,-8.19
2022-12-14T05:42:44.150Z,-8.21
2022-12-14T05:45:13.585Z,-8.21
2022-12-14T05:47:41.607Z,-8.20
2022-12-14T05:50:09.567Z,-8.23
2022-12-14T05:52:37.502Z,-8.26
2022-12-14T05:55:05.715Z,-8.25
2022-12-14T05:57:33.631Z,-8.23
2022-12-14T06:00:01.626Z,-8.21
2022-12-14T06:02:29.632Z,-8.15
2022-12-14T06:04:58.241Z,-8.09
2022-12-14T06:07:28.307Z,-8.12
2022-12-14T06:09:56.510Z,-8.16
2022-12-14T06:12:24.425Z,-8.15
2022-12-14T06:14:52.383Z,-8.11
2022-12-14T06:17:20.413Z,-8.06
2022-12-14T06:19:50.572Z,-8.00
2022-12-14T06:22:19.170Z,-7.99
2022-12-14T06:24:47.120Z,-8.07
2022-12-14T06:27:15.212Z,-8.18
2022-12-14T06:29:43.176Z,-8.30
2022-12-14T06:32:11.091Z,-8.39
2022-12-14T06:34:42.116Z,-8.42
2022-12-14T06:37:10.467Z,-8.37
2022-12-14T06:39:39.024Z,-8.31
2022-12-14T06:42:07.372Z,-8.33
2022-12-14T06:44:35.454Z,-8.39
2022-12-14T06:47:03.927Z,-8.52
2022-12-14T06:49:31.885Z,-8.61
2022-12-14T06:51:59.865Z,-8.63
2022-12-14T06:54:27.822Z,-8.62
2022-12-14T06:56:56.457Z,-8.73
2022-12-14T06:59:24.426Z,-8.85
2022-12-14T07:01:53.138Z,-8.87
2022-12-14T07:04:21.725Z,-8.85
2022-12-14T07:06:49.954Z,-8.82
2022-12-14T07:09:18.078Z,-8.75
2022-12-14T07:11:46.486Z,-8.69
2022-12-14T07:14:16.283Z,-8.64
2022-12-14T07:16:48.267Z,-8.60
2022-12-14T07:19:17.366Z,-8.58
2022-12-14T07:21:45.282Z,-8.53
2022-12-14T07:24:13.241Z,-8.50
2022-12-14T07:26:41.228Z,-8.46
2022-12-14T07:29:11.713Z,-8.45
2022-12-14T07:31:39.849Z,-8.47
2022-12-14T07:34:07.856Z,-8.47
2022-12-14T07:36:35.903Z,-8.43
2022-12-14T07:39:03.883Z,-8.40
2022-12-14T07:41:32.531Z,-8.39
2022-12-14T07:44:01.426Z,-8.38
2022-12-14T07:46:32.269Z,-8.36
2022-12-14T07:49:01.170Z,-8.33
2022-12-14T07:51:36.545Z,-8.29
2022-12-14T07:54:05.607Z,-8.25
2022-12-14T07:56:35.065Z,-8.16
2022-12-14T07:59:04.258Z,-8.09
2022-12-14T08:01:34.109Z,-8.04
2022-12-14T08:04:07.639Z,-7.98
2022-12-14T08:06:36.489Z,-7.91
2022-12-14T08:09:05.625Z,-7.86
2022-12-14T08:11:33.882Z,-7.80
2022-12-14T08:14:03.150Z,-7.78
2022-12-14T08:16:31.878Z,-7.71
2022-12-14T08:19:01.026Z,-7.62
2022-12-14T08:21:29.369Z,-7.55
2022-12-14T08:23:57.843Z,-7.49
2022-12-14T08:26:31.585Z,-7.43
2022-12-14T08:29:01.660Z,-7.34
2022-12-14T08:31:29.725Z,-7.23
2022-12-14T08:34:01.135Z,-7.17
2022-12-14T08:36:33.692Z,-7.13
2022-12-14T08:39:04.168Z,-7.06
2022-12-14T08:41:32.203Z,-7.00
2022-12-14T08:44:01.073Z,-6.97
2022-12-14T08:46:30.823Z,-6.93
2022-12-14T08:48:58.901Z,-6.94
2022-12-14T08:51:27.629Z,-6.93
2022-12-14T08:53:56.262Z,-6.89
2022-12-14T08:56:25.276Z,-6.93
2022-12-14T08:58:53.636Z,-6.97
2022-12-14T09:01:30.023Z,-6.95
2022-12-14T09:04:05.188Z,-6.90
2022-12-14T09:06:34.419Z,-6.86
2022-12-14T09:09:02.730Z,-6.78
2022-12-14T09:11:30.685Z,-6.70
2022-12-14T09:13:58.659Z,-6.63
2022-12-14T09:16:26.690Z,-6.57
2022-12-14T09:18:55.241Z,-6.54
2022-12-14T09:21:24.242Z,-6.51
2022-12-14T09:24:02.934Z,-6.44
2022-12-14T09:26:37.291Z,-6.39
2022-12-14T09:29:05.821Z,-6.36
2022-12-14T09:31:33.846Z,-6.27
2022-12-14T09:34:02.261Z,-6.22
2022-12-14T09:36:30.276Z,-6.21
2022-12-14T09:38:59.594Z,-6.18
2022-12-14T09:41:27.518Z,-6.18
2022-12-14T09:44:18.701Z,-6.15
2022-12-14T09:47:01.712Z,-6.06
2022-12-14T09:49:34.748Z,-5.98
2022-12-14T09:52:04.421Z,-5.97
2022-12-14T09:54:35.169Z,-6.00
2022-12-14T09:57:11.804Z,-5.97
2022-12-14T09:59:40.250Z,-5.95
2022-12-14T10:02:30.362Z,-5.94
2022-12-14T10:05:12.846Z,-5.93
2022-12-14T10:07:59.907Z,-5.90
2022-12-14T10:10:40.710Z,-5.89
2022-12-14T10:13:14.639Z,-5.94
2022-12-14T10:16:01.396Z,-6.02
2022-12-14T10:21:38.411Z,-5.99
2022-12-14T10:24:11.784Z,-5.98
2022-12-14T10:26:46.029Z,-5.95
2022-12-14T10:29:22.913Z,-5.93
2022-12-14T10:32:10.094Z,-5.87
2022-12-14T10:34:42.163Z,-5.83
2022-12-14T10:37:12.884Z,-5.76
2022-12-14T10:39:49.595Z,-5.71
2022-12-14T10:42:29.767Z,-5.75
2022-12-14T10:45:39.216Z,-5.74
2022-12-14T10:48:06.351Z,-5.66
2022-12-14T10:50:34.325Z,-5.50
2022-12-14T10:53:03.190Z,-5.45
2022-12-14T10:55:38.347Z,-5.44
2022-12-14T10:58:13.008Z,-5.47
2022-12-14T11:00:40.899Z,-5.49
2022-12-14T11:03:14.044Z,-5.48
2022-12-14T11:05:47.933Z,-5.41
2022-12-14T11:08:34.459Z,-5.39
2022-12-14T11:11:13.949Z,-5.38
2022-12-14T11:13:51.374Z,-5.40
2022-12-14T11:16:36.749Z,-5.42
2022-12-14T11:19:14.018Z,-5.49
2022-12-14T11:22:21.998Z,-5.56
2022-12-14T11:24:50.127Z,-5.59
2022-12-14T11:27:19.950Z,-5.54
2022-12-14T11:29:49.500Z,-5.44
2022-12-14T11:32:19.229Z,-5.40
2022-12-14T11:34:53.437Z,-5.38
2022-12-14T11:37:26.342Z,-5.35
2022-12-14T11:40:01.906Z,-5.29
2022-12-14T11:42:31.396Z,-5.29
2022-12-14T11:45:18.470Z,-5.37
2022-12-14T11:47:46.411Z,-5.40
2022-12-14T11:50:25.285Z,-5.41
2022-12-14T11:53:09.347Z,-5.46
2022-12-14T11:57:13.628Z,-5.40
2022-12-14T11:59:54.801Z,-5.36
2022-12-14T12:02:48.217Z,-5.32
2022-12-14T12:05:19.164Z,-5.25
2022-12-14T12:07:48.943Z,-5.21
2022-12-14T12:10:20.253Z,-5.19
2022-12-14T12:13:00.463Z,-5.25
2022-12-14T12:15:36.812Z,-5.35
2022-12-14T12:18:19.559Z,-5.25
2022-12-14T12:21:07.846Z,-5.27
2022-12-14T12:23:41.352Z,-5.39
2022-12-14T12:26:19.295Z,-5.49
2022-12-14T12:28:52.608Z,-5.56
2022-12-14T12:31:26.296Z,-5.61
2022-12-14T12:34:01.615Z,-5.66
2022-12-14T12:36:30.002Z,-5.76
2022-12-14T12:39:05.392Z,-5.83
2022-12-14T12:41:44.132Z,-5.89
2022-12-14T12:44:23.854Z,-5.92
2022-12-14T12:47:32.116Z,-5.95
2022-12-14T12:50:06.598Z,-5.89
2022-12-14T12:52:56.547Z,-5.88
2022-12-14T12:55:29.089Z,-5.89
2022-12-14T12:57:58.044Z,-5.90
2022-12-14T13:00:28.590Z,-5.90
2022-12-14T13:03:09.003Z,-5.96
2022-12-14T13:05:48.838Z,-5.98
2022-12-14T13:08:30.312Z,-6.01
2022-12-14T13:11:24.956Z,-6.05
2022-12-14T13:14:01.643Z,-6.05
2022-12-14T13:16:37.035Z,-6.08
2022-12-14T13:19:40.992Z,-6.10
2022-12-14T13:22:06.431Z,-6.09
2022-12-14T13:24:34.012Z,-6.10
2022-12-14T13:27:24.693Z,-6.08
2022-12-14T13:30:15.821Z,-6.04
2022-12-14T13:32:52.713Z,-6.00
2022-12-14T13:35:28.490Z,-5.96
2022-12-14T13:38:16.788Z,-5.94
2022-12-14T13:41:16.137Z,-5.97
2022-12-14T13:44:09.588Z,-6.05
2022-12-14T13:46:36.717Z,-6.03
2022-12-14T13:49:08.336Z,-6.06
2022-12-14T13:51:39.712Z,-6.09
2022-12-14T13:54:19.166Z,-6.14
2022-12-14T13:56:46.133Z,-6.18
2022-12-14T13:59:33.350Z,-6.22
2022-12-14T14:02:02.266Z,-6.27
2022-12-14T14:04:30.707Z,-6.29
2022-12-14T14:07:22.424Z,-6.31
2022-12-14T14:09:55.092Z,-6.32
2022-12-14T14:12:43.323Z,-6.32
2022-12-14T14:16:19.067Z,-6.34
2022-12-14T14:18:36.803Z,-6.31
2022-12-14T14:21:12.391Z,-6.32
2022-12-14T14:24:05.871Z,-6.38
2022-12-14T14:26:36.102Z,-6.38
2022-12-14T14:29:13.786Z,-6.38
2022-12-14T14:32:01.137Z,-6.38
2022-12-14T14:34:38.973Z,-6.34
2022-12-14T14:37:21.045Z,-6.32
2022-12-14T14:40:10.136Z,-6.32
2022-12-14T14:43:08.296Z,-6.32
2022-12-14T14:45:40.391Z,-6.32
2022-12-14T14:48:37.037Z,-6.31
2022-12-14T14:51:15.876Z,-6.30
2022-12-14T14:53:43.435Z,-6.30
2022-12-14T14:56:10.917Z,-6.33
2022-12-14T14:58:41.023Z,-6.34
2022-12-14T15:01:21.577Z,-6.36
2022-12-14T15:04:15.749Z,-6.34
2022-12-14T15:06:50.354Z,-6.31
2022-12-14T15:09:31.477Z,-6.30
2022-12-14T15:12:07.052Z,-6.25
2022-12-14T15:14:43.345Z,-6.26
2022-12-14T15:17:22.998Z,-6.28
2022-12-14T15:19:54.028Z,-6.27
2022-12-14T15:22:31.069Z,-6.25
2022-12-14T15:25:00.205Z,-6.22
2022-12-14T15:27:49.795Z,-6.17
2022-12-14T15:30:20.654Z,-6.13
2022-12-14T15:32:55.954Z,-6.10
2022-12-14T15:35:36.796Z,-6.07
2022-12-14T15:38:05.954Z,-6.05
2022-12-14T15:40:34.684Z,-6.02
2022-12-14T15:43:15.109Z,-5.98
2022-12-14T15:45:45.436Z,-5.96
2022-12-14T15:48:24.268Z,-5.95
2022-12-14T15:50:53.789Z,-5.94
2022-12-14T15:53:32.318Z,-5.92
2022-12-14T15:56:10.014Z,-5.92
2022-12-14T15:58:40.250Z,-5.89
2022-12-14T16:01:18.851Z,-5.87
2022-12-14T16:03:47.501Z,-5.88
2022-12-14T16:06:18.326Z,-5.88
2022-12-14T16:08:55.925Z,-5.86
2022-12-14T16:11:27.603Z,-5.85
2022-12-14T16:13:57.590Z,-5.84
2022-12-14T16:16:25.407Z,-5.79
2022-12-14T16:18:52.413Z,-5.77
2022-12-14T16:21:34.120Z,-5.73
2022-12-14T16:24:22.014Z,-5.72
2022-12-14T16:27:00.049Z,-5.69
2022-12-14T16:29:32.535Z,-5.67
2022-12-14T16:32:00.756Z,-5.65
2022-12-14T16:34:27.956Z,-5.64
2022-12-14T16:37:31.140Z,-5.61
2022-12-14T16:39:50.300Z,-5.58
2022-12-14T16:42:22.016Z,-5.55
2022-12-14T16:44:55.679Z,-5.51
2022-12-14T16:47:34.416Z,-5.49
2022-12-14T16:50:01.507Z,-5.45
2022-12-14T16:52:30.963Z,-5.43
2022-12-14T16:55:17.333Z,-5.44
2022-12-14T16:58:00.844Z,-5.40
2022-12-14T17:00:30.891Z,-5.39
2022-12-14T17:03:08.167Z,-5.38
2022-12-14T17:05:39.170Z,-5.40
2022-12-14T17:08:07.212Z,-5.39
2022-12-14T17:10:34.653Z,-5.43
2022-12-14T17:13:03.132Z,-5.44
2022-12-14T17:15:33.745Z,-5.44
2022-12-14T17:18:03.339Z,-5.44
2022-12-14T17:20:38.632Z,-5.43
2022-12-14T17:23:08.394Z,-5.42
2022-12-14T17:25:35.828Z,-5.38
2022-12-14T17:28:03.047Z,-5.35
2022-12-14T17:30:32.799Z,-5.38
2022-12-14T17:32:59.594Z,-5.43
2022-12-14T17:35:32.950Z,-5.42
2022-12-14T17:37:59.668Z,-5.45
2022-12-14T17:40:27.355Z,-5.48
2022-12-14T17:42:58.489Z,-5.49
2022-12-14T17:45:28.316Z,-5.46
2022-12-14T17:47:55.777Z,-5.45
2022-12-14T17:50:23.167Z,-5.42
2022-12-14T17:52:50.194Z,-5.39
2022-12-14T17:55:22.460Z,-5.37
2022-12-14T17:57:50.024Z,-5.33
2022-12-14T18:00:36.967Z,-5.34
2022-12-14T18:03:04.536Z,-5.31
2022-12-14T18:05:32.031Z,-5.30
2022-12-14T18:07:58.898Z,-5.27
2022-12-14T18:10:26.326Z,-5.28
2022-12-14T18:12:53.658Z,-5.24
2022-12-14T18:15:29.652Z,-5.20
2022-12-14T18:17:56.782Z,-5.19
2022-12-14T18:20:23.924Z,-5.20
2022-12-14T18:22:51.906Z,-5.18
2022-12-14T18:25:26.261Z,-5.14
2022-12-14T18:27:53.739Z,-5.13
2022-12-14T18:30:20.508Z,-5.12
2022-12-14T18:32:47.259Z,-5.11
2022-12-14T18:35:19.216Z,-5.09
2022-12-14T18:37:49.462Z,-5.07
2022-12-14T18:40:21.497Z,-5.07
2022-12-14T18:42:48.165Z,-5.06
2022-12-14T18:45:17.996Z,-5.05
2022-12-14T18:47:45.280Z,-5.06
2022-12-14T18:50:13.665Z,-5.07
2022-12-14T18:52:40.563Z,-5.04
2022-12-14T18:55:21.484Z,-5.04
2022-12-14T18:57:51.239Z,-5.03
2022-12-14T19:00:21.512Z,-5.01
2022-12-14T19:02:49.471Z,-5.02
2022-12-14T19:05:25.635Z,-4.99
2022-12-14T19:07:53.679Z,-4.98
2022-12-14T19:10:24.199Z,-4.95
2022-12-14T19:12:51.463Z,-4.97
2022-12-14T19:15:24.540Z,-4.97
2022-12-14T19:17:51.694Z,-4.95
2022-12-14T19:20:20.230Z,-4.93
2022-12-14T19:22:48.035Z,-4.92
2022-12-14T19:25:16.180Z,-4.91
2022-12-14T19:28:20.365Z,-4.89
2022-12-14T19:30:34.234Z,-4.88
2022-12-14T19:33:01.221Z,-4.87
2022-12-14T19:35:28.212Z,-4.86
2022-12-14T19:37:57.762Z,-4.87
2022-12-14T19:40:25.586Z,-4.87
2022-12-14T19:42:52.572Z,-4.88
2022-12-14T19:45:19.963Z,-4.88
2022-12-14T19:47:47.034Z,-4.86
2022-12-14T19:50:14.945Z,-4.85
2022-12-14T19:52:42.811Z,-4.85
2022-12-14T19:55:10.920Z,-4.84
2022-12-14T19:57:41.001Z,-4.83
2022-12-14T20:00:10.234Z,-4.81
2022-12-14T20:02:37.513Z,-4.81
2022-12-14T20:05:05.738Z,-4.80
2022-12-14T20:07:32.495Z,-4.78
2022-12-14T20:09:59.190Z,-4.73
2022-12-14T20:12:26.001Z,-4.71
2022-12-14T20:14:52.708Z,-4.70
2022-12-14T20:17:19.657Z,-4.68
2022-12-14T20:19:46.408Z,-4.67
2022-12-14T20:22:14.351Z,-4.65
2022-12-14T20:24:42.318Z,-4.63
2022-12-14T20:27:09.174Z,-4.62
2022-12-14T20:29:37.888Z,-4.64
2022-12-14T20:32:04.826Z,-4.63
2022-12-14T20:34:32.623Z,-4.59
2022-12-14T20:37:00.049Z,-4.56
2022-12-14T20:39:26.780Z,-4.56
2022-12-14T20:41:53.542Z,-4.54
2022-12-14T20:44:20.192Z,-4.55
2022-12-14T20:46:46.980Z,-4.55
2022-12-14T20:49:17.010Z,-4.52
2022-12-14T20:51:45.391Z,-4.49
2022-12-14T20:54:15.169Z,-4.49
2022-12-14T20:56:42.295Z,-4.46
2022-12-14T20:59:10.483Z,-4.43
2022-12-14T21:01:41.772Z,-4.42
2022-12-14T21:04:09.577Z,-4.41
2022-12-14T21:06:42.163Z,-4.42
2022-12-14T21:09:09.644Z,-4.42
2022-12-14T21:12:06.697Z,-4.39
2022-12-14T21:14:46.286Z,-4.34
2022-12-14T21:17:14.944Z,-4.30
2022-12-14T21:19:41.684Z,-4.25
2022-12-14T21:22:12.836Z,-4.16
2022-12-14T21:27:27.293Z,-4.02
2022-12-14T21:30:02.868Z,-3.93
2022-12-14T21:32:29.574Z,-3.89
2022-12-14T21:34:56.225Z,-3.93
2022-12-14T21:37:23.222Z,-3.85
2022-12-14T21:39:55.232Z,-3.75
2022-12-14T21:42:24.374Z,-3.65
2022-12-14T21:44:52.860Z,-3.61
2022-12-14T21:47:28.314Z,-3.58
2022-12-14T21:49:56.165Z,-3.50
2022-12-14T21:52:26.403Z,-3.42
2022-12-14T21:54:53.075Z,-3.34
2022-12-14T21:57:41.020Z,-3.24
2022-12-14T22:00:09.796Z,-3.24
2022-12-14T22:02:40.876Z,-3.27
2022-12-14T22:05:09.295Z,-3.36
2022-12-14T22:07:36.119Z,-3.38
2022-12-14T22:10:04.628Z,-3.35
2022-12-14T22:12:31.478Z,-3.36
2022-12-14T22:14:58.166Z,-3.32
2022-12-14T22:17:25.031Z,-3.27
2022-12-14T22:19:53.713Z,-3.26
2022-12-14T22:22:20.719Z,-3.29
2022-12-14T22:24:49.277Z,-3.35
2022-12-14T22:27:16.538Z,-3.34
2022-12-14T22:29:43.279Z,-3.35
2022-12-14T22:32:14.212Z,-3.40
2022-12-14T22:34:41.359Z,-3.40
2022-12-14T22:37:08.023Z,-3.42
2022-12-14T22:39:34.711Z,-3.46
2022-12-14T22:42:01.568Z,-3.52
2022-12-14T22:44:28.288Z,-3.59
2022-12-14T22:46:54.942Z,-3.65
2022-12-14T22:49:21.873Z,-3.65
2022-12-14T22:51:49.880Z,-3.62
2022-12-14T22:54:21.575Z,-3.62
2022-12-14T22:56:56.432Z,-3.63
2022-12-14T22:59:38.509Z,-3.58
2022-12-14T23:02:05.814Z,-3.45
2022-12-14T23:04:32.996Z,-3.40
2022-12-14T23:06:59.670Z,-3.35
2022-12-14T23:09:45.035Z,-3.29
2022-12-14T23:12:30.551Z,-3.22
2022-12-14T23:15:15.922Z,-3.21
2022-12-14T23:18:01.419Z,-3.17
2022-12-14T23:20:47.024Z,-3.11
2022-12-14T23:23:32.616Z,-3.07
2022-12-14T23:26:22.297Z,-3.05
2022-12-14T23:29:07.779Z,-3.06
2022-12-14T23:31:53.334Z,-3.03
2022-12-14T23:34:38.895Z,-2.94
2022-12-14T23:37:24.346Z,-2.88
2022-12-14T23:40:10.071Z,-2.82
2022-12-14T23:42:55.217Z,-2.77
2022-12-14T23:45:40.650Z,-2.82
2022-12-14T23:48:26.542Z,-2.88
2022-12-14T23:51:11.920Z,-2.82
2022-12-14T23:53:57.441Z,-2.74
2022-12-14T23:56:42.447Z,-2.71
2022-12-14T23:59:31.858Z,-2.67
